Time;durP1;ratioP1;P1;durP2;ratioP2;P2;SDS_P1;SDS_P2;PMS_P1;PMS_P2;Temp;Humidity;BMP_temperature;BMP_pressure;BME280_temperature;BME280_humidity;BME280_pressure;Samples;Min_cycle;Max_cycle;Signal;HPM_P1;HPM_P2
2023/09/19 00:02:04;;;;;;;1.27;1.00;;;;;;;18.07;100.00;97737.25;4937083;29;20236;-79
2023/09/19 00:04:32;;;;;;;1.83;0.93;;;;;;;18.01;100.00;97743.25;4937301;29;20212;-79
2023/09/19 00:06:58;;;;;;;1.03;0.80;;;;;;;17.97;100.00;97741.03;4937162;29;20373;-79
2023/09/19 00:09:27;;;;;;;0.93;0.73;;;;;;;17.91;100.00;97742.53;4937021;29;20216;-79
2023/09/19 00:11:54;;;;;;;2.03;0.97;;;;;;;17.88;100.00;97750.03;4937206;29;20327;-79
2023/09/19 00:14:24;;;;;;;1.57;0.80;;;;;;;17.83;100.00;97755.88;4937411;29;20663;-79
2023/09/19 00:16:50;;;;;;;1.67;0.90;;;;;;;17.83;100.00;97755.00;4937345;29;20272;-79
2023/09/19 00:19:18;;;;;;;1.40;0.77;;;;;;;17.82;100.00;97764.88;4937161;29;20212;-79
2023/09/19 00:21:45;;;;;;;0.97;0.80;;;;;;;17.83;100.00;97768.38;4936438;29;20255;-79
2023/09/19 00:24:12;;;;;;;2.27;0.90;;;;;;;17.85;100.00;97775.25;4937206;29;20319;-79
2023/09/19 00:26:39;;;;;;;0.97;0.77;;;;;;;17.81;100.00;97765.84;4935667;29;20258;-79
2023/09/19 00:29:08;;;;;;;1.00;0.90;;;;;;;17.80;100.00;97769.53;4936384;29;20212;-79
2023/09/19 00:31:37;;;;;;;0.73;0.70;;;;;;;17.80;100.00;97782.09;4936240;29;20292;-79
2023/09/19 00:34:10;;;;;;;1.20;0.77;;;;;;;17.74;100.00;97788.88;4936440;29;20212;-79
2023/09/19 00:36:38;;;;;;;1.10;0.90;;;;;;;17.68;100.00;97783.34;4936453;29;20863;-79
2023/09/19 00:39:05;;;;;;;1.53;1.00;;;;;;;17.63;100.00;97781.13;4936453;29;20216;-79
2023/09/19 00:41:32;;;;;;;1.00;0.67;;;;;;;17.62;100.00;97784.81;4936330;29;20284;-79
2023/09/19 00:44:00;;;;;;;0.80;0.80;;;;;;;17.60;100.00;97786.81;4936860;29;20216;-79
2023/09/19 00:46:26;;;;;;;0.83;0.80;;;;;;;17.63;100.00;97791.00;4936712;29;20628;-79
2023/09/19 00:48:53;;;;;;;1.07;0.90;;;;;;;17.61;100.00;97783.13;4936431;29;20208;-79
2023/09/19 00:51:22;;;;;;;0.80;0.80;;;;;;;17.61;100.00;97793.81;4936504;29;20243;-79
2023/09/19 00:53:50;;;;;;;1.20;0.80;;;;;;;17.55;100.00;97794.44;4937138;29;20208;-79
2023/09/19 00:56:18;;;;;;;2.50;0.80;;;;;;;17.58;100.00;97799.50;4936458;29;20267;-79
2023/09/19 00:58:46;;;;;;;1.03;0.73;;;;;;;17.56;100.00;97790.78;4936337;29;20222;-79
2023/09/19 01:01:14;;;;;;;1.73;1.10;;;;;;;17.55;100.00;97805.13;4900666;29;1050756;-79
2023/09/19 01:03:41;;;;;;;0.90;0.77;;;;;;;17.58;100.00;97801.31;4937152;29;20675;-79
2023/09/19 01:06:08;;;;;;;0.70;0.70;;;;;;;17.56;100.00;97796.13;4937347;29;20219;-79
2023/09/19 01:08:36;;;;;;;1.00;0.87;;;;;;;17.54;100.00;97803.47;4937532;29;20287;-80
2023/09/19 01:11:10;;;;;;;1.27;0.70;;;;;;;17.58;100.00;97807.50;4936909;29;20327;-79
2023/09/19 01:13:49;;;;;;;2.53;0.70;;;;;;;17.53;100.00;97807.13;4937406;29;20234;-79
2023/09/19 01:16:23;;;;;;;0.73;0.67;;;;;;;17.59;100.00;97800.31;4937017;29;20238;-79
2023/09/19 01:18:56;;;;;;;1.90;0.80;;;;;;;17.54;100.00;97810.63;4936825;29;20823;-79
2023/09/19 01:21:29;;;;;;;1.43;0.70;;;;;;;17.52;100.00;97813.47;4937038;29;20607;-79
2023/09/19 01:24:36;;;;;;;1.53;0.90;;;;;;;17.49;100.00;97805.75;4936776;29;20216;-79
2023/09/19 01:27:33;;;;;;;0.87;0.70;;;;;;;17.48;100.00;97816.59;4936720;29;20227;-79
2023/09/19 01:30:10;;;;;;;0.87;0.67;;;;;;;17.49;100.00;97820.97;4936926;29;20235;-79
2023/09/19 01:32:38;;;;;;;0.70;0.67;;;;;;;17.47;100.00;97815.78;4936173;29;20923;-79
2023/09/19 01:35:04;;;;;;;1.00;0.70;;;;;;;17.42;100.00;97831.44;4937329;29;20307;-79
2023/09/19 01:37:31;;;;;;;0.83;0.80;;;;;;;17.44;100.00;97823.28;4936673;28;20280;-79
2023/09/19 01:40:11;;;;;;;0.93;0.70;;;;;;;17.42;100.00;97820.75;4936800;29;20216;-79
2023/09/19 01:42:42;;;;;;;0.70;0.70;;;;;;;17.37;100.00;97833.72;4936151;29;20243;-79
2023/09/19 01:45:14;;;;;;;1.33;0.80;;;;;;;17.37;100.00;97823.03;4936661;29;20212;-79
2023/09/19 01:47:49;;;;;;;0.90;0.70;;;;;;;17.32;100.00;97833.31;4936731;29;20343;-79
2023/09/19 01:50:23;;;;;;;1.07;0.63;;;;;;;17.28;100.00;97825.78;4937186;29;20239;-79
2023/09/19 01:52:58;;;;;;;1.13;0.80;;;;;;;17.28;100.00;97823.09;4936774;29;20609;-79
2023/09/19 01:55:29;;;;;;;1.00;0.67;;;;;;;17.29;100.00;97825.63;4936413;29;20247;-79
2023/09/19 01:58:05;;;;;;;0.70;0.70;;;;;;;17.20;100.00;97826.53;4936559;29;20210;-79
2023/09/19 02:00:35;;;;;;;1.50;0.70;;;;;;;17.14;100.00;97843.19;4936032;29;20211;-79
2023/09/19 02:03:03;;;;;;;1.00;0.77;;;;;;;17.13;100.00;97844.16;4936661;29;20223;-79
2023/09/19 02:05:30;;;;;;;1.87;0.73;;;;;;;17.07;100.00;97852.78;4936324;29;20268;-79
2023/09/19 02:07:58;;;;;;;1.30;0.70;;;;;;;17.03;100.00;97855.94;4936079;29;20243;-79
2023/09/19 02:10:25;;;;;;;1.00;0.63;;;;;;;16.99;100.00;97860.75;4936626;29;20577;-79
2023/09/19 02:12:51;;;;;;;1.17;1.07;;;;;;;16.92;100.00;97859.69;4935972;29;20289;-79
2023/09/19 02:15:18;;;;;;;1.27;0.87;;;;;;;16.90;100.00;97859.00;4936422;29;20666;-79
2023/09/19 02:17:46;;;;;;;2.53;0.87;;;;;;;16.80;100.00;97865.38;4936324;29;20208;-79
2023/09/19 02:20:14;;;;;;;1.90;0.90;;;;;;;16.66;100.00;97853.41;4936502;29;20208;-79
2023/09/19 02:22:41;;;;;;;0.83;0.70;;;;;;;16.57;100.00;97854.28;4936001;29;20239;-79
2023/09/19 02:25:08;;;;;;;0.70;0.67;;;;;;;16.49;100.00;97862.22;4936279;29;20212;-79
2023/09/19 02:27:35;;;;;;;0.60;0.60;;;;;;;16.42;100.00;97866.47;4936027;29;20232;-79
2023/09/19 02:30:04;;;;;;;1.20;0.77;;;;;;;16.37;100.00;97876.69;4936390;29;20222;-79
2023/09/19 02:32:31;;;;;;;1.07;0.90;;;;;;;16.37;100.00;97866.03;4935342;29;20236;-79
2023/09/19 02:34:59;;;;;;;1.37;0.83;;;;;;;16.37;100.00;97852.69;4936019;29;20291;-79
2023/09/19 02:37:26;;;;;;;0.90;0.67;;;;;;;16.31;100.00;97869.28;4936306;29;20208;-79
2023/09/19 02:39:52;;;;;;;0.80;0.70;;;;;;;16.29;100.00;97868.59;4936268;29;20675;-79
2023/09/19 02:42:19;;;;;;;0.70;0.70;;;;;;;16.29;100.00;97868.59;4935916;29;20568;-79
2023/09/19 02:44:46;;;;;;;0.80;0.60;;;;;;;16.30;100.00;97877.44;4936333;29;20248;-79
2023/09/19 02:47:14;;;;;;;0.83;0.70;;;;;;;16.31;100.00;97874.63;4936239;29;20228;-79
2023/09/19 02:49:42;;;;;;;1.83;0.80;;;;;;;16.33;100.00;97875.31;4935647;29;20212;-79
2023/09/19 02:52:11;;;;;;;1.17;0.73;;;;;;;16.37;100.00;97879.38;4939638;29;20734;-79
2023/09/19 02:54:37;;;;;;;1.03;0.60;;;;;;;16.46;100.00;97880.34;4939666;29;20675;-79
2023/09/19 02:57:06;;;;;;;1.27;0.80;;;;;;;16.55;100.00;97874.94;4939695;29;20212;-79
2023/09/19 02:59:33;;;;;;;1.57;0.83;;;;;;;16.65;100.00;97883.72;4939728;29;20216;-79
2023/09/19 03:02:00;;;;;;;1.50;0.77;;;;;;;16.74;100.00;97881.97;4939125;29;20356;-79
2023/09/19 03:04:28;;;;;;;0.87;0.73;;;;;;;16.77;100.00;97887.84;4939618;29;20212;-79
2023/09/19 03:06:58;;;;;;;1.27;0.83;;;;;;;16.79;100.00;97880.56;4939419;29;20212;-79
2023/09/19 03:09:26;;;;;;;0.67;0.67;;;;;;;16.78;100.00;97884.22;4939547;29;20236;-79
2023/09/19 03:11:53;;;;;;;2.33;0.93;;;;;;;16.83;100.00;97881.91;4939226;29;20243;-79
2023/09/19 03:14:20;;;;;;;1.03;0.90;;;;;;;16.83;100.00;97887.25;4939419;29;20561;-79
2023/09/19 03:16:47;;;;;;;0.70;0.70;;;;;;;16.84;100.00;97883.63;4939297;29;20212;-79
2023/09/19 03:19:14;;;;;;;0.80;0.77;;;;;;;16.85;100.00;97884.44;4939852;29;20208;-79
2023/09/19 03:21:41;;;;;;;0.77;0.70;;;;;;;16.89;100.00;97886.66;4939001;29;20235;-79
2023/09/19 03:24:08;;;;;;;1.67;0.90;;;;;;;16.90;100.00;97892.84;4938793;29;20216;-79
2023/09/19 03:26:37;;;;;;;1.00;0.90;;;;;;;16.90;100.00;97890.19;4938526;29;20212;-79
2023/09/19 03:29:07;;;;;;;1.17;1.00;;;;;;;16.92;100.00;97890.84;4938549;29;20236;-79
2023/09/19 03:31:36;;;;;;;1.77;0.90;;;;;;;16.90;100.00;97884.84;4938642;29;20235;-79
2023/09/19 03:34:04;;;;;;;1.23;0.80;;;;;;;16.89;100.00;97889.31;4938617;29;20259;-79
2023/09/19 03:36:30;;;;;;;1.30;0.80;;;;;;;16.92;100.00;97891.72;4938562;29;20327;-79
2023/09/19 03:38:57;;;;;;;1.57;0.87;;;;;;;16.92;100.00;97889.03;4938788;29;20214;-79
2023/09/19 03:41:23;;;;;;;0.60;0.60;;;;;;;16.92;100.00;97896.19;4938709;29;20259;-79
2023/09/19 03:43:52;;;;;;;0.73;0.73;;;;;;;16.88;100.00;97898.31;4938704;29;20212;-79
2023/09/19 03:46:19;;;;;;;0.70;0.60;;;;;;;16.90;100.00;97903.53;4938466;29;20219;-79
2023/09/19 03:48:45;;;;;;;1.97;1.00;;;;;;;16.79;100.00;97901.91;4938883;29;20239;-79
2023/09/19 03:51:12;;;;;;;1.20;0.90;;;;;;;16.65;100.00;97909.59;4938130;29;20228;-79
2023/09/19 03:53:39;;;;;;;1.47;1.03;;;;;;;16.52;100.00;97901.91;4938821;29;20208;-79
2023/09/19 03:56:06;;;;;;;1.63;0.73;;;;;;;16.44;100.00;97909.81;4938246;29;20232;-79
2023/09/19 03:58:34;;;;;;;1.47;0.80;;;;;;;16.41;100.00;97901.28;4938415;29;20219;-79
2023/09/19 04:01:02;;;;;;;0.83;0.83;;;;;;;16.30;100.00;97906.75;4938015;29;20284;-80
2023/09/19 04:03:34;;;;;;;1.37;1.00;;;;;;;16.24;100.00;97904.69;4938419;29;20311;-79
2023/09/19 04:06:02;;;;;;;1.33;1.10;;;;;;;16.21;100.00;97894.31;4938698;29;20349;-79
2023/09/19 04:08:29;;;;;;;1.40;0.90;;;;;;;16.20;100.00;97904.13;4938753;29;20264;-79
2023/09/19 04:10:56;;;;;;;1.53;0.90;;;;;;;16.18;100.00;97907.94;4938218;29;20240;-79
2023/09/19 04:13:23;;;;;;;1.43;0.90;;;;;;;16.16;100.00;97913.41;4938370;29;20306;-79
2023/09/19 04:15:49;;;;;;;1.70;0.80;;;;;;;16.13;100.00;97901.38;4938000;29;20257;-79
2023/09/19 04:18:17;;;;;;;1.67;1.00;;;;;;;16.08;100.00;97903.63;4938282;29;20846;-79
2023/09/19 04:20:49;;;;;;;1.40;1.03;;;;;;;16.06;100.00;97905.59;4938053;29;20228;-79
2023/09/19 04:23:15;;;;;;;1.33;1.23;;;;;;;16.02;100.00;97911.22;4937926;29;20208;-79
2023/09/19 04:25:42;;;;;;;2.17;1.13;;;;;;;16.01;100.00;97903.34;4938375;29;20207;-79
2023/09/19 04:28:10;;;;;;;1.23;1.00;;;;;;;16.01;100.00;97915.84;4938137;29;20269;-79
2023/09/19 04:30:36;;;;;;;1.47;1.20;;;;;;;16.01;100.00;97913.19;4937886;29;20212;-79
2023/09/19 04:33:04;;;;;;;2.83;1.20;;;;;;;16.02;100.00;97914.88;4936912;29;20582;-79
2023/09/19 04:35:32;;;;;;;1.77;1.27;;;;;;;16.02;100.00;97916.53;4937589;29;20278;-79
2023/09/19 04:37:59;;;;;;;1.70;1.20;;;;;;;15.97;100.00;97914.44;4938029;29;20291;-79
2023/09/19 04:40:26;;;;;;;2.83;1.27;;;;;;;15.96;100.00;97915.44;4938305;29;20581;-79
2023/09/19 04:42:56;;;;;;;1.47;1.20;;;;;;;15.98;100.00;97918.78;4937717;29;20299;-79
2023/09/19 04:45:22;;;;;;;1.83;1.33;;;;;;;15.96;100.00;97918.13;4937908;29;20268;-79
2023/09/19 04:47:49;;;;;;;1.13;0.97;;;;;;;15.98;100.00;97924.13;4937427;29;20393;-79
2023/09/19 04:50:16;;;;;;;1.27;1.13;;;;;;;16.02;100.00;97929.03;4937672;29;20215;-79
2023/09/19 04:52:45;;;;;;;2.20;1.17;;;;;;;16.01;100.00;97921.19;4937969;29;20324;-79
2023/09/19 04:55:16;;;;;;;2.47;1.17;;;;;;;16.02;100.00;97930.88;4938107;29;20216;-79
2023/09/19 04:57:44;;;;;;;1.07;0.87;;;;;;;16.03;100.00;97936.06;4937933;29;20306;-79
2023/09/19 05:00:14;;;;;;;1.23;1.13;;;;;;;16.07;100.00;97949.94;4938578;29;20240;-79
2023/09/19 05:02:41;;;;;;;1.60;1.37;;;;;;;16.04;100.00;97948.41;4937773;29;20239;-79
2023/09/19 05:05:09;;;;;;;1.53;1.27;;;;;;;16.08;100.00;97951.63;4938249;29;20212;-79
2023/09/19 05:07:35;;;;;;;2.00;1.33;;;;;;;16.06;100.00;97958.94;4938933;29;20205;-78
2023/09/19 05:10:06;;;;;;;1.40;1.30;;;;;;;16.02;100.00;97952.19;4938600;29;20220;-78
2023/09/19 05:12:33;;;;;;;1.97;1.30;;;;;;;16.04;100.00;97956.41;4936221;29;20275;-78
2023/09/19 05:15:01;;;;;;;1.73;1.30;;;;;;;16.02;100.00;97953.00;4936925;29;20212;-79
2023/09/19 05:17:27;;;;;;;2.53;1.30;;;;;;;16.02;100.00;97957.53;4937181;29;20329;-79
2023/09/19 05:19:54;;;;;;;1.60;1.23;;;;;;;16.00;100.00;97960.31;4937119;29;20295;-78
2023/09/19 05:22:20;;;;;;;2.13;1.20;;;;;;;16.02;100.00;97958.34;4935199;29;20232;-79
2023/09/19 05:24:47;;;;;;;1.80;1.50;;;;;;;16.04;100.00;97962.56;4935990;29;20216;-80
2023/09/19 05:27:16;;;;;;;2.47;1.50;;;;;;;16.04;100.00;97973.22;4937666;29;20266;-79
2023/09/19 05:29:44;;;;;;;1.40;1.30;;;;;;;16.04;100.00;97973.22;4954776;29;20294;-80
2023/09/19 05:32:10;;;;;;;2.63;1.43;;;;;;;16.13;100.00;97982.19;4955430;28;20854;-80
2023/09/19 05:34:38;;;;;;;2.50;1.40;;;;;;;16.07;100.00;97984.59;4955694;28;20224;-80
2023/09/19 05:37:05;;;;;;;1.60;1.43;;;;;;;16.03;100.00;97986.72;4955460;28;20207;-80
2023/09/19 05:39:31;;;;;;;4.10;2.83;;;;;;;15.99;100.00;97985.31;4955336;28;20239;-80
2023/09/19 05:41:58;;;;;;;1.83;1.53;;;;;;;16.03;100.00;97995.53;4955801;28;20236;-80
2023/09/19 05:44:26;;;;;;;2.83;1.73;;;;;;;16.08;100.00;97988.94;4956079;28;20218;-82
2023/09/19 05:46:52;;;;;;;1.57;1.47;;;;;;;16.00;100.00;97992.31;4956820;28;20219;-81
2023/09/19 05:49:21;;;;;;;1.97;1.53;;;;;;;15.97;100.00;97999.75;4956266;28;20230;-80
2023/09/19 05:51:48;;;;;;;2.53;1.43;;;;;;;15.96;100.00;98000.75;4956139;28;20263;-80
2023/09/19 05:54:15;;;;;;;2.50;1.90;;;;;;;15.95;100.00;98007.06;4956075;28;20215;-80
2023/09/19 05:56:41;;;;;;;1.97;1.70;;;;;;;15.95;100.00;98007.06;4954194;28;20270;-79
2023/09/19 05:59:08;;;;;;;3.00;1.83;;;;;;;15.91;100.00;98010.97;4954752;28;20211;-79
2023/09/19 06:01:36;;;;;;;2.13;1.80;;;;;;;15.86;100.00;98026.56;4954151;28;20902;-78
2023/09/19 06:04:04;;;;;;;2.73;1.70;;;;;;;15.77;100.00;98016.75;4955592;28;20212;-78
2023/09/19 06:06:31;;;;;;;2.63;1.43;;;;;;;15.70;100.00;98032.44;4955012;28;20215;-78
2023/09/19 06:08:57;;;;;;;3.03;1.73;;;;;;;15.54;100.00;98028.66;4953746;28;20239;-78
2023/09/19 06:11:26;;;;;;;2.87;1.77;;;;;;;15.38;100.00;98033.69;4953351;28;20274;-78
2023/09/19 06:13:53;;;;;;;3.03;1.87;;;;;;;15.34;100.00;98029.63;4953668;28;20670;-78
2023/09/19 06:16:19;;;;;;;2.33;1.90;;;;;;;15.26;100.00;98032.94;4953707;28;20306;-79
2023/09/19 06:18:52;;;;;;;2.10;1.90;;;;;;;15.21;100.00;98037.00;4952653;28;20631;-78
2023/09/19 06:21:19;;;;;;;2.57;1.83;;;;;;;15.24;100.00;98024.25;4953939;28;20270;-78
2023/09/19 06:23:46;;;;;;;2.53;1.80;;;;;;;15.25;100.00;98033.91;4954526;28;20547;-78
2023/09/19 06:26:13;;;;;;;2.53;1.90;;;;;;;15.30;100.00;98036.16;4957902;28;20591;-77
2023/09/19 06:28:39;;;;;;;3.23;1.97;;;;;;;15.37;100.00;98034.66;4959446;28;20333;-80
2023/09/19 06:31:09;;;;;;;2.40;2.20;;;;;;;15.41;100.00;98036.06;4959124;28;20241;-80
2023/09/19 06:33:38;;;;;;;2.63;1.93;;;;;;;15.39;100.00;98027.41;4959440;28;20336;-80
2023/09/19 06:36:06;;;;;;;2.83;2.07;;;;;;;15.45;100.00;98040.16;4960031;28;20223;-80
2023/09/19 06:38:34;;;;;;;2.37;1.90;;;;;;;15.51;100.00;98032.44;4959710;28;20207;-80
2023/09/19 06:41:04;;;;;;;2.43;1.80;;;;;;;15.53;100.00;98037.63;4959284;28;20989;-80
2023/09/19 06:43:32;;;;;;;2.00;1.60;;;;;;;15.54;100.00;98041.97;4959292;28;20612;-80
2023/09/19 06:45:59;;;;;;;3.40;1.93;;;;;;;15.58;100.00;98043.41;4960274;28;20212;-80
2023/09/19 06:48:26;;;;;;;3.47;2.10;;;;;;;15.62;100.00;98050.09;4960014;28;20215;-81
2023/09/19 06:50:54;;;;;;;5.43;2.00;;;;;;;15.72;100.00;98053.63;4959176;28;20235;-80
2023/09/19 06:53:23;;;;;;;2.20;1.73;;;;;;;15.79;100.00;98052.09;4958542;28;20215;-80
2023/09/19 06:55:50;;;;;;;2.07;1.60;;;;;;;15.85;100.00;98051.53;4958774;28;20301;-80
2023/09/19 06:58:17;;;;;;;3.27;1.87;;;;;;;15.92;100.00;98047.31;4958990;28;20211;-80
2023/09/19 07:00:44;;;;;;;6.07;2.30;;;;;;;16.03;100.00;98051.50;4958354;28;20296;-80
2023/09/19 07:03:11;;;;;;;5.67;2.10;;;;;;;16.14;100.00;98054.03;4958903;28;20254;-80
2023/09/19 07:05:39;;;;;;;2.30;1.90;;;;;;;16.22;100.00;98056.81;4958867;28;20270;-80
2023/09/19 07:08:07;;;;;;;2.93;1.87;;;;;;;16.28;100.00;98066.91;4958689;28;20591;-80
2023/09/19 07:10:35;;;;;;;2.27;1.60;;;;;;;16.36;100.00;98072.41;4958209;28;20650;-80
2023/09/19 07:13:03;;;;;;;2.83;2.07;;;;;;;16.42;100.00;98079.00;4957992;28;20281;-80
2023/09/19 07:15:35;;;;;;;3.77;1.80;;;;;;;16.46;100.00;98080.41;4958050;28;20214;-80
2023/09/19 07:18:02;;;;;;;5.07;2.23;;;;;;;16.50;100.00;98087.97;4958307;28;20646;-80
2023/09/19 07:20:31;;;;;;;6.30;2.20;;;;;;;16.54;100.00;98089.38;4957872;28;20215;-80
2023/09/19 07:22:59;;;;;;;3.23;1.97;;;;;;;16.50;100.00;98093.31;4958211;28;20215;-80
2023/09/19 07:25:26;;;;;;;3.17;2.00;;;;;;;16.54;100.00;98091.22;4957799;28;20218;-80
2023/09/19 07:27:56;;;;;;;2.67;1.80;;;;;;;16.57;100.00;98091.75;4957849;28;20215;-80
2023/09/19 07:30:23;;;;;;;2.27;1.90;;;;;;;16.62;100.00;98096.66;4957693;28;20228;-80
2023/09/19 07:32:49;;;;;;;3.87;1.80;;;;;;;16.65;100.00;98102.53;4957282;28;20220;-80
2023/09/19 07:35:16;;;;;;;4.10;1.77;;;;;;;16.69;100.00;98103.09;4957806;28;20605;-80
2023/09/19 07:37:42;;;;;;;2.73;1.80;;;;;;;16.71;100.00;98101.16;4957378;28;20219;-80
2023/09/19 07:40:10;;;;;;;2.60;1.63;;;;;;;16.76;100.00;98110.38;4957522;28;20216;-80
2023/09/19 07:42:40;;;;;;;2.57;1.50;;;;;;;16.81;100.00;98112.63;4957373;28;20234;-80
2023/09/19 07:45:09;;;;;;;1.70;1.60;;;;;;;16.89;100.00;98110.91;4957555;28;20682;-80
2023/09/19 07:47:36;;;;;;;2.83;1.60;;;;;;;17.00;100.00;98113.41;4957487;28;20207;-80
2023/09/19 07:50:02;;;;;;;2.53;1.70;;;;;;;17.02;100.00;98107.91;4957881;28;20608;-80
2023/09/19 07:52:29;;;;;;;2.37;1.40;;;;;;;17.02;100.00;98111.41;4957239;28;20239;-80
2023/09/19 07:54:57;;;;;;;2.70;1.40;;;;;;;17.05;100.00;98111.13;4957312;28;20237;-80
2023/09/19 07:57:24;;;;;;;2.00;1.47;;;;;;;17.07;100.00;98122.50;4957325;28;20211;-80
2023/09/19 07:59:51;;;;;;;2.00;1.60;;;;;;;17.10;100.00;98119.56;4957084;28;20303;-80
2023/09/19 08:02:19;;;;;;;2.83;1.50;;;;;;;17.05;100.00;98127.16;4956665;28;20286;-80
2023/09/19 08:04:46;;;;;;;3.73;1.40;;;;;;;17.07;100.00;98130.50;4957106;28;20216;-80
2023/09/19 08:07:16;;;;;;;2.13;1.60;;;;;;;17.02;100.00;98132.78;4957237;28;20281;-81
2023/09/19 08:09:46;;;;;;;1.80;1.40;;;;;;;17.10;100.00;98135.59;4957078;28;20236;-80
2023/09/19 08:12:12;;;;;;;3.97;1.57;;;;;;;17.20;100.00;98141.72;4956855;28;20239;-80
2023/09/19 08:14:41;;;;;;;1.83;1.40;;;;;;;17.33;100.00;98142.25;4957155;28;20215;-80
2023/09/19 08:17:08;;;;;;;2.17;1.37;;;;;;;17.44;100.00;98139.38;4957505;28;20313;-82
2023/09/19 08:19:40;;;;;;;2.90;1.30;;;;;;;17.68;100.00;98131.66;4957214;28;20244;-80
2023/09/19 08:22:10;;;;;;;2.00;1.40;;;;;;;17.69;100.00;98127.97;4957014;28;20242;-80
2023/09/19 08:24:36;;;;;;;2.80;1.40;;;;;;;17.76;100.00;98128.25;4956998;28;20235;-80
2023/09/19 08:27:05;;;;;;;2.20;1.30;;;;;;;17.90;100.00;98136.59;4957130;28;20219;-80
2023/09/19 08:29:32;;;;;;;1.87;1.40;;;;;;;17.98;100.00;98128.63;4956923;28;20326;-80
2023/09/19 08:31:59;;;;;;;1.47;1.10;;;;;;;18.09;100.00;98123.06;4956588;28;20349;-80
2023/09/19 08:34:26;;;;;;;2.03;1.20;;;;;;;18.23;100.00;98125.19;4956574;28;20222;-80
2023/09/19 08:36:56;;;;;;;2.30;1.10;;;;;;;18.35;100.00;98115.97;4956526;28;20222;-80
2023/09/19 08:39:23;;;;;;;1.97;1.10;;;;;;;18.42;100.00;98117.03;4957047;28;20266;-80
2023/09/19 08:41:49;;;;;;;2.23;1.30;;;;;;;18.56;100.00;98129.03;4955889;28;20818;-80
2023/09/19 08:44:16;;;;;;;2.63;1.20;;;;;;;18.63;100.00;98136.28;4956504;28;20220;-80
2023/09/19 08:46:45;;;;;;;1.80;1.00;;;;;;;18.83;100.00;98136.94;4956282;28;20211;-80
2023/09/19 08:49:22;;;;;;;2.03;1.20;;;;;;;18.94;100.00;98129.47;4955332;28;20233;-80
2023/09/19 08:52:02;;;;;;;1.80;1.20;;;;;;;18.96;97.94;98134.69;4955992;28;20718;-80
2023/09/19 08:54:38;;;;;;;1.80;1.20;;;;;;;19.07;98.86;98135.25;4956356;28;20211;-80
2023/09/19 08:57:10;;;;;;;2.00;1.27;;;;;;;19.22;97.53;98133.72;4956530;28;20215;-80
2023/09/19 08:59:39;;;;;;;1.80;1.40;;;;;;;19.20;94.89;98122.28;4955735;28;20675;-78
2023/09/19 09:02:12;;;;;;;1.70;1.20;;;;;;;19.12;92.91;98118.69;4955050;28;20245;-78
2023/09/19 09:04:40;;;;;;;1.20;1.00;;;;;;;19.02;90.97;98113.44;4954280;28;20220;-77
2023/09/19 09:07:11;;;;;;;1.53;1.17;;;;;;;18.87;87.82;98106.16;4955215;28;20224;-80
2023/09/19 09:09:47;;;;;;;1.27;1.00;;;;;;;18.91;89.11;98129.78;5090693;28;20616;-81
2023/09/19 09:12:15;;;;;;;2.93;1.33;;;;;;;19.01;85.84;98114.44;5090561;28;20227;-81
2023/09/19 09:14:45;;;;;;;1.80;1.23;;;;;;;19.08;87.33;98120.84;5089930;28;20211;-80
2023/09/19 09:17:12;;;;;;;1.40;1.20;;;;;;;19.30;85.92;98114.13;5090687;28;20209;-81
2023/09/19 09:19:38;;;;;;;2.83;1.10;;;;;;;19.43;82.47;98110.00;5091082;28;20214;-81
2023/09/19 09:22:09;;;;;;;1.67;1.07;;;;;;;19.63;83.00;98119.44;5089904;28;20234;-81
2023/09/19 09:24:38;;;;;;;1.47;1.20;;;;;;;19.81;80.09;98108.63;5090771;28;20253;-80
2023/09/19 09:27:08;;;;;;;2.17;0.97;;;;;;;20.03;79.31;98113.34;5090885;28;20207;-81
2023/09/19 09:29:46;;;;;;;1.27;0.97;;;;;;;20.17;79.32;98104.72;5090324;28;20321;-81
2023/09/19 09:32:21;;;;;;;1.60;1.20;;;;;;;20.23;72.78;98078.03;5090447;28;20234;-82
2023/09/19 09:34:51;;;;;;;1.43;1.00;;;;;;;20.31;73.50;98091.44;5090330;28;20206;-82
2023/09/19 09:37:19;;;;;;;1.53;1.10;;;;;;;20.35;74.34;98098.16;5091149;28;20207;-83
2023/09/19 09:39:53;;;;;;;1.47;1.10;;;;;;;20.39;75.49;98099.50;5090507;28;20213;-82
2023/09/19 09:42:33;;;;;;;1.90;1.13;;;;;;;20.53;73.99;98098.84;5090006;28;20231;-81
2023/09/19 09:45:17;;;;;;;1.30;0.90;;;;;;;20.63;73.05;98095.97;5090282;28;20292;-80
2023/09/19 09:47:55;;;;;;;1.77;1.20;;;;;;;20.76;72.96;98102.50;5089843;28;20313;-80
2023/09/19 09:50:39;;;;;;;1.60;1.10;;;;;;;20.98;71.97;98085.69;5089729;28;20320;-80
2023/09/19 09:53:21;;;;;;;2.03;1.20;;;;;;;21.07;70.12;98084.69;5089554;28;20213;-80
2023/09/19 09:56:06;;;;;;;0.80;0.80;;;;;;;21.13;68.25;98083.13;5090195;28;20273;-81
2023/09/19 09:58:35;;;;;;;1.00;0.90;;;;;;;21.25;69.75;98081.75;5091122;28;20248;-82
2023/09/19 10:01:08;;;;;;;1.57;0.90;;;;;;;21.34;66.38;98069.97;5090969;28;20246;-82
2023/09/19 10:03:39;;;;;;;2.23;1.07;;;;;;;21.29;64.86;98062.44;5091525;28;20206;-82
2023/09/19 10:06:24;;;;;;;2.07;1.13;;;;;;;21.26;65.85;98072.66;5090615;28;20210;-81
2023/09/19 10:09:05;;;;;;;1.20;0.87;;;;;;;21.08;64.91;98067.53;5089532;28;20325;-81
2023/09/19 10:11:32;;;;;;;2.00;1.00;;;;;;;20.82;60.05;98042.72;5089971;28;20299;-82
2023/09/19 10:14:06;;;;;;;1.00;0.80;;;;;;;20.79;61.64;98042.22;5090401;28;20352;-82
2023/09/19 10:16:35;;;;;;;1.87;1.00;;;;;;;20.82;62.92;98053.47;5091153;28;20625;-82
2023/09/19 10:19:05;;;;;;;1.20;1.00;;;;;;;20.89;63.63;98054.50;5089074;28;20239;-82
2023/09/19 10:21:33;;;;;;;3.10;1.17;;;;;;;20.89;61.37;98038.38;5076949;28;20234;-82
2023/09/19 10:24:00;;;;;;;2.53;0.90;;;;;;;20.83;60.45;98028.28;5077033;28;20216;-82
2023/09/19 10:26:30;;;;;;;1.30;0.90;;;;;;;20.86;61.25;98035.97;5077111;28;20204;-82
2023/09/19 10:29:01;;;;;;;1.90;0.93;;;;;;;20.97;61.98;98045.59;5076886;28;20318;-82
2023/09/19 10:31:28;;;;;;;1.40;0.90;;;;;;;21.01;61.03;98042.38;5076786;28;20233;-82
2023/09/19 10:33:56;;;;;;;1.20;0.97;;;;;;;21.13;61.22;98034.75;5077613;28;20217;-81
2023/09/19 10:36:26;;;;;;;1.67;0.90;;;;;;;21.12;59.90;98033.94;5077391;28;20219;-82
2023/09/19 10:38:55;;;;;;;1.42;1.05;;;;;;;21.12;60.21;98039.31;5076813;28;20505;-82
2023/09/19 10:41:23;;;;;;;1.10;0.87;;;;;;;21.24;61.39;98042.44;5077695;28;20269;-80
2023/09/19 10:43:49;;;;;;;1.73;1.10;;;;;;;21.35;60.86;98053.66;5077546;28;20297;-80
2023/09/19 10:46:17;;;;;;;1.30;0.90;;;;;;;21.45;62.36;98062.34;5077513;28;20215;-80
2023/09/19 10:48:48;;;;;;;1.37;1.17;;;;;;;21.69;60.99;98053.34;5077668;28;20231;-80
2023/09/19 10:51:23;;;;;;;1.80;0.90;;;;;;;21.88;59.95;98044.84;5080559;28;20242;-81
2023/09/19 10:53:52;;;;;;;3.57;1.20;;;;;;;22.01;58.71;98035.13;5075976;28;20268;-80
2023/09/19 10:56:27;;;;;;;1.13;0.90;;;;;;;21.99;58.24;98045.25;5076469;28;20258;-80
2023/09/19 10:59:07;;;;;;;3.90;1.10;;;;;;;21.91;57.54;98029.16;5076630;28;20558;-80
2023/09/19 11:01:47;;;;;;;1.10;1.00;;;;;;;21.81;58.58;98042.00;5076315;28;20242;-80
2023/09/19 11:04:27;;;;;;;1.50;1.10;;;;;;;21.71;59.31;98035.19;5077289;28;20229;-80
2023/09/19 11:07:08;;;;;;;1.23;1.03;;;;;;;21.64;58.83;98035.00;5076666;28;20234;-80
2023/09/19 11:09:46;;;;;;;2.13;1.00;;;;;;;21.83;58.37;98023.81;5075849;28;20226;-80
2023/09/19 11:12:13;;;;;;;1.77;0.90;;;;;;;22.02;57.92;98022.50;5076096;28;20277;-80
2023/09/19 11:14:41;;;;;;;1.57;1.07;;;;;;;22.21;57.51;98019.31;5076660;28;20215;-80
2023/09/19 11:17:33;;;;;;;1.17;1.03;;;;;;;22.21;54.30;97997.78;5077121;28;20211;-80
2023/09/19 11:20:25;;;;;;;4.87;0.97;;;;;;;22.50;54.20;98006.78;5072806;28;20210;-80
2023/09/19 11:23:24;;;;;;;1.07;0.80;;;;;;;22.61;53.50;98029.78;5076280;28;20199;-80
2023/09/19 11:25:53;;;;;;;0.97;0.80;;;;;;;22.78;52.48;98023.19;5075873;28;20277;-80
2023/09/19 11:28:32;;;;;;;1.87;0.97;;;;;;;22.76;52.30;98022.53;5075803;28;20249;-80
2023/09/19 11:30:59;;;;;;;2.03;1.00;;;;;;;22.46;51.93;98027.06;5075129;28;20227;-80
2023/09/19 11:33:33;;;;;;;1.63;0.93;;;;;;;22.19;56.16;98051.81;5075816;28;20204;-80
2023/09/19 11:36:00;;;;;;;3.23;1.20;;;;;;;21.94;57.33;98047.63;5076338;28;20218;-80
2023/09/19 11:39:08;;;;;;;1.90;0.90;;;;;;;21.86;58.68;98050.38;5075903;28;20316;-80